createdAt,value
2019-01-02T00:01:59.540Z,85.60
2019-01-02T00:04:30.371Z,85.67
2019-01-02T00:06:59.724Z,85.67
2019-01-02T00:09:33.650Z,85.88
2019-01-02T00:12:03.399Z,86.14
2019-01-02T00:14:33.550Z,86.44
2019-01-02T00:17:03.694Z,86.36
2019-01-02T00:19:33.549Z,86.25
2019-01-02T00:22:02.861Z,86.31
2019-01-02T00:24:38.539Z,86.46
2019-01-02T00:27:07.890Z,86.78
2019-01-02T00:29:37.451Z,86.43
2019-01-02T00:32:09.924Z,86.47
2019-01-02T00:34:39.622Z,86.77
2019-01-02T00:37:11.398Z,86.63
2019-01-02T00:39:40.955Z,86.54
2019-01-02T00:42:10.361Z,86.52
2019-01-02T00:44:40.572Z,86.85
2019-01-02T00:47:30.543Z,87.24
2019-01-02T00:50:00.979Z,86.81
2019-01-02T00:52:33.225Z,86.37
2019-01-02T00:55:02.555Z,86.26
2019-01-02T00:57:33.690Z,86.03
2019-01-02T01:00:05.876Z,85.94
2019-01-02T01:02:36.298Z,85.84
2019-01-02T01:05:06.195Z,86.54
2019-01-02T01:07:35.933Z,86.53
2019-01-02T01:10:11.496Z,86.70
2019-01-02T01:12:41.205Z,87.25
2019-01-02T01:15:10.575Z,87.36
2019-01-02T01:17:40.320Z,87.29
2019-01-02T01:20:10.767Z,87.05
2019-01-02T01:22:40.483Z,87.12
2019-01-02T01:25:10.433Z,86.67
2019-01-02T01:27:43.341Z,86.78
2019-01-02T01:30:12.298Z,86.74
2019-01-02T01:32:41.649Z,86.43
2019-01-02T01:35:13.107Z,86.16
2019-01-02T01:37:52.147Z,85.65
2019-01-02T01:40:21.445Z,86.01
2019-01-02T01:42:50.807Z,86.29
2019-01-02T01:45:21.297Z,86.08
2019-01-02T01:47:50.969Z,85.71
2019-01-02T01:50:21.153Z,85.80
2019-01-02T01:52:57.101Z,86.24
2019-01-02T01:55:28.404Z,86.56
2019-01-02T01:57:58.442Z,86.24
2019-01-02T02:00:27.799Z,85.57
2019-01-02T02:02:57.160Z,85.06
2019-01-02T02:05:28.744Z,84.96
2019-01-02T02:07:59.372Z,84.71
2019-01-02T02:10:29.059Z,84.64
2019-01-02T02:13:00.380Z,84.58
2019-01-02T02:15:30.081Z,84.98
2019-01-02T02:18:01.304Z,85.06
2019-01-02T02:20:32.125Z,84.77
2019-01-02T02:23:01.504Z,84.55
2019-01-02T02:25:31.261Z,84.48
2019-01-02T02:28:01.367Z,84.33
2019-01-02T02:30:31.535Z,83.71
2019-01-02T02:33:03.538Z,84.01
2019-01-02T02:35:33.017Z,84.10
2019-01-02T02:38:03.121Z,83.94
2019-01-02T02:40:32.836Z,84.01
2019-01-02T02:43:02.496Z,84.00
2019-01-02T02:45:32.811Z,83.70
2019-01-02T02:48:02.567Z,83.51
2019-01-02T02:50:33.450Z,83.54
2019-01-02T02:53:03.150Z,83.63
2019-01-02T02:55:34.955Z,83.34
2019-01-02T02:58:05.515Z,82.92
2019-01-02T03:00:35.623Z,82.85
2019-01-02T03:03:06.831Z,82.88
2019-01-02T03:05:36.425Z,82.85
2019-01-02T03:08:05.768Z,82.95
2019-01-02T03:10:35.363Z,82.83
2019-01-02T03:13:04.967Z,83.06
2019-01-02T03:15:34.517Z,82.92
2019-01-02T03:18:04.039Z,82.52
2019-01-02T03:20:37.135Z,82.52
2019-01-02T03:23:06.767Z,82.14
2019-01-02T03:25:36.405Z,82.16
2019-01-02T03:28:06.012Z,82.06
2019-01-02T03:30:35.720Z,82.03
2019-01-02T03:33:05.418Z,81.65
2019-01-02T03:35:34.771Z,81.22
2019-01-02T03:38:04.151Z,81.10
2019-01-02T03:40:33.803Z,80.94
2019-01-02T03:43:03.136Z,80.99
2019-01-02T03:45:32.455Z,81.48
2019-01-02T03:48:02.238Z,81.57
2019-01-02T03:50:31.580Z,81.40
2019-01-02T03:53:01.098Z,81.36
2019-01-02T03:55:30.464Z,81.20
2019-01-02T03:58:02.237Z,81.24
2019-01-02T04:00:31.612Z,81.11
2019-01-02T04:03:01.580Z,80.95
2019-01-02T04:05:31.217Z,81.05
2019-01-02T04:08:06.274Z,80.81
2019-01-02T04:10:36.803Z,80.47
2019-01-02T04:13:10.210Z,80.39
2019-01-02T04:15:42.625Z,80.38
2019-01-02T04:18:12.410Z,80.70
2019-01-02T04:20:43.055Z,80.74
2019-01-02T04:23:12.363Z,80.72
2019-01-02T04:25:42.028Z,80.77
2019-01-02T04:28:11.654Z,80.57
2019-01-02T04:30:41.409Z,80.65
2019-01-02T04:33:10.748Z,81.11
2019-01-02T04:35:42.968Z,81.12
2019-01-02T04:38:12.375Z,81.19
2019-01-02T04:40:41.724Z,81.37
2019-01-02T04:43:11.421Z,80.95
2019-01-02T04:45:41.201Z,80.72
2019-01-02T04:48:10.563Z,80.67
2019-01-02T04:50:40.133Z,80.67
2019-01-02T04:53:09.524Z,80.83
2019-01-02T04:55:38.853Z,80.82
2019-01-02T04:58:08.203Z,81.07
2019-01-02T05:00:40.228Z,81.31
2019-01-02T05:03:10.853Z,81.37
2019-01-02T05:05:41.020Z,81.46
2019-01-02T05:08:10.937Z,81.15
2019-01-02T05:10:40.276Z,81.43
2019-01-02T05:13:09.653Z,81.52
2019-01-02T05:15:39.029Z,81.54
2019-01-02T05:18:08.801Z,81.93
2019-01-02T05:20:39.405Z,81.87
2019-01-02T05:23:10.080Z,81.70
2019-01-02T05:25:40.561Z,81.77
2019-01-02T05:28:11.160Z,81.74
2019-01-02T05:30:40.554Z,81.87
2019-01-02T05:33:10.189Z,81.79
2019-01-02T05:35:42.534Z,81.95
2019-01-02T05:38:12.221Z,82.09
2019-01-02T05:40:41.809Z,82.89
2019-01-02T05:43:12.457Z,83.28
2019-01-02T05:45:42.352Z,83.76
2019-01-02T05:48:14.512Z,84.34
2019-01-02T05:50:46.168Z,85.04
2019-01-02T05:53:16.058Z,85.52
2019-01-02T05:55:48.524Z,85.56
2019-01-02T05:58:21.706Z,85.77
2019-01-02T06:01:43.110Z,85.81
2019-01-02T06:08:23.577Z,86.15
2019-01-02T06:18:23.167Z,86.84
2019-01-02T06:24:36.491Z,87.32
2019-01-02T06:27:35.584Z,86.79
2019-01-02T06:39:55.121Z,85.24
2019-01-02T06:42:37.700Z,84.84
2019-01-02T06:45:22.900Z,83.03
2019-01-02T06:48:03.272Z,81.44
2019-01-02T06:51:00.356Z,79.25
2019-01-02T06:53:29.973Z,77.92
2019-01-02T06:56:00.587Z,76.77
2019-01-02T06:58:29.984Z,74.70
2019-01-02T07:00:59.941Z,72.94
2019-01-02T07:03:29.763Z,71.11
2019-01-02T07:05:59.186Z,71.50
2019-01-02T07:08:28.599Z,72.35
2019-01-02T07:10:58.829Z,73.45
2019-01-02T07:13:28.199Z,74.56
2019-01-02T07:15:57.527Z,74.56
2019-01-02T07:18:27.414Z,75.21
2019-01-02T07:20:56.950Z,75.85
2019-01-02T07:23:26.300Z,76.50
2019-01-02T07:25:56.354Z,76.77
2019-01-02T07:28:25.958Z,77.55
2019-01-02T07:30:57.231Z,77.88
2019-01-02T07:33:33.793Z,78.35
2019-01-02T07:36:38.933Z,78.71
2019-01-02T07:39:41.943Z,78.97
2019-01-02T07:43:10.771Z,78.42
2019-01-02T07:46:31.713Z,78.42
2019-01-02T07:49:25.947Z,77.60
2019-01-02T07:52:38.629Z,77.26
2019-01-02T07:55:39.459Z,77.46
2019-01-02T07:58:55.792Z,77.32
2019-01-02T08:02:11.097Z,77.74
2019-01-02T08:05:15.206Z,78.43
2019-01-02T08:08:20.810Z,76.15
2019-01-02T08:15:16.723Z,75.41
2019-01-02T08:18:15.864Z,75.24
2019-01-02T08:21:25.428Z,74.46
2019-01-02T08:24:28.908Z,77.06
2019-01-02T08:27:41.797Z,73.81
2019-01-02T08:30:53.402Z,74.08
2019-01-02T08:34:00.682Z,74.27
2019-01-02T08:37:01.241Z,74.07
2019-01-02T08:40:10.354Z,72.96
2019-01-02T08:43:20.659Z,70.81
2019-01-02T08:46:32.024Z,70.60
2019-01-02T08:49:40.962Z,71.16
2019-01-02T08:52:51.265Z,71.46
2019-01-02T08:56:03.404Z,72.12
2019-01-02T08:59:05.521Z,72.24
2019-01-02T09:02:12.190Z,72.27
2019-01-02T09:05:31.191Z,71.61
2019-01-02T09:08:34.088Z,71.19
2019-01-02T09:19:08.788Z,70.43
2019-01-02T09:22:13.648Z,67.14
2019-01-02T09:25:16.441Z,67.14
2019-01-02T09:28:31.725Z,65.16
2019-01-02T09:32:03.357Z,64.97
2019-01-02T09:35:27.965Z,64.20
2019-01-02T09:38:28.197Z,61.88
2019-01-02T09:41:33.760Z,60.42
2019-01-02T09:44:51.814Z,59.82
2019-01-02T09:47:54.713Z,59.78
2019-01-02T09:51:02.090Z,59.77
2019-01-02T09:54:22.235Z,59.42
2019-01-02T09:57:38.875Z,59.31
2019-01-02T10:00:45.907Z,59.91
2019-01-02T10:03:56.820Z,60.87
2019-01-02T10:07:01.057Z,59.78
2019-01-02T10:10:17.646Z,60.20
2019-01-02T10:13:45.942Z,59.76
2019-01-02T10:16:38.971Z,60.87
2019-01-02T10:19:30.724Z,61.56
2019-01-02T10:22:32.706Z,61.36
2019-01-02T10:25:34.938Z,59.91
2019-01-02T10:29:00.387Z,59.80
2019-01-02T10:32:12.868Z,58.99
2019-01-02T10:35:17.801Z,61.24
2019-01-02T10:38:02.418Z,59.31
2019-01-02T10:41:08.560Z,59.35
2019-01-02T10:44:05.520Z,60.17
2019-01-02T10:46:49.105Z,59.73
2019-01-02T10:49:59.492Z,60.71
2019-01-02T10:53:12.882Z,60.05
2019-01-02T10:56:19.407Z,60.80
2019-01-02T10:59:34.841Z,60.47
2019-01-02T11:02:36.795Z,60.07
2019-01-02T11:05:44.195Z,60.22
2019-01-02T11:08:53.291Z,59.74
2019-01-02T11:12:10.945Z,60.13
2019-01-02T11:15:06.791Z,60.10
2019-01-02T11:17:56.501Z,59.95
2019-01-02T11:21:08.575Z,60.14
2019-01-02T11:24:27.712Z,60.53
2019-01-02T11:27:46.100Z,60.76
2019-01-02T11:30:26.825Z,58.62
2019-01-02T11:33:43.482Z,57.50
2019-01-02T11:36:53.638Z,56.64
2019-01-02T11:39:56.186Z,57.69
2019-01-02T11:43:13.268Z,57.96
2019-01-02T11:45:42.613Z,58.03
2019-01-02T11:48:13.250Z,57.67
2019-01-02T11:50:42.657Z,57.71
2019-01-02T11:53:12.071Z,57.01
2019-01-02T11:55:41.455Z,56.56
2019-01-02T11:58:10.830Z,56.08
2019-01-02T12:00:40.140Z,56.73
2019-01-02T12:03:10.981Z,56.89
2019-01-02T12:05:40.311Z,56.82
2019-01-02T12:08:09.695Z,58.14
2019-01-02T12:10:39.753Z,58.05
2019-01-02T12:13:09.465Z,58.38
2019-01-02T12:15:39.372Z,58.05
2019-01-02T12:18:08.684Z,58.46
2019-01-02T12:20:38.071Z,58.43
2019-01-02T12:23:07.386Z,57.56
2019-01-02T12:25:36.810Z,56.54
2019-01-02T12:28:06.113Z,56.35
2019-01-02T12:30:35.528Z,56.63
2019-01-02T12:33:04.903Z,56.97
2019-01-02T12:35:34.197Z,56.87
2019-01-02T12:38:03.521Z,56.90
2019-01-02T12:40:32.895Z,56.52
2019-01-02T12:43:02.271Z,56.54
2019-01-02T12:45:31.666Z,56.90
2019-01-02T12:48:01.945Z,57.55
2019-01-02T12:50:31.619Z,58.19
2019-01-02T12:53:00.917Z,58.18
2019-01-02T12:55:30.633Z,57.90
2019-01-02T12:58:00.411Z,56.92
2019-01-02T13:00:35.284Z,56.40
2019-01-02T13:03:51.666Z,55.40
2019-01-02T13:07:17.395Z,55.74
2019-01-02T13:09:52.352Z,56.15
2019-01-02T13:13:14.870Z,56.55
2019-01-02T13:16:09.277Z,56.61
2019-01-02T13:19:08.646Z,56.77
2019-01-02T13:22:10.246Z,57.30
2019-01-02T13:25:07.888Z,57.83
2019-01-02T13:28:00.345Z,58.04
2019-01-02T13:31:18.100Z,57.85
2019-01-02T13:34:19.851Z,58.56
2019-01-02T13:37:00.228Z,58.79
2019-01-02T13:40:16.149Z,58.32
2019-01-02T13:43:20.838Z,58.90
2019-01-02T13:46:23.832Z,59.73
2019-01-02T13:49:22.410Z,59.84
2019-01-02T13:51:54.733Z,60.75
2019-01-02T13:54:25.334Z,61.32
2019-01-02T13:56:54.871Z,62.83
2019-01-02T13:59:24.265Z,62.83
2019-01-02T14:01:53.586Z,63.79
2019-01-02T14:04:22.966Z,66.06
2019-01-02T14:06:52.812Z,67.35
2019-01-02T14:09:22.245Z,67.35
2019-01-02T14:11:52.470Z,67.49
2019-01-02T14:14:22.200Z,68.21
2019-01-02T14:16:51.837Z,68.82
2019-01-02T14:19:21.169Z,69.34
2019-01-02T14:21:50.770Z,69.86
2019-01-02T14:24:20.393Z,70.33
2019-01-02T14:26:50.084Z,70.54
2019-01-02T14:29:19.863Z,70.74
2019-01-02T14:31:49.243Z,71.04
2019-01-02T14:34:18.548Z,71.13
2019-01-02T14:36:48.524Z,71.66
2019-01-02T14:39:17.952Z,71.73
2019-01-02T14:41:47.354Z,71.84
2019-01-02T14:44:16.686Z,72.37
2019-01-02T14:46:50.326Z,72.52
2019-01-02T14:49:18.165Z,72.74
2019-01-02T14:51:47.636Z,73.11
2019-01-02T14:54:17.012Z,73.14
2019-01-02T14:56:47.312Z,73.48
2019-01-02T14:59:17.653Z,73.65
2019-01-02T15:01:47.449Z,73.78
2019-01-02T15:04:17.054Z,74.49
2019-01-02T15:06:46.382Z,74.73
2019-01-02T15:09:15.776Z,75.23
2019-01-02T15:11:45.173Z,75.37
2019-01-02T15:14:14.536Z,75.69
2019-01-02T15:16:47.062Z,75.85
2019-01-02T15:19:16.365Z,76.02
2019-01-02T15:21:45.740Z,76.19
2019-01-02T15:24:15.159Z,76.03
2019-01-02T15:26:44.550Z,76.19
2019-01-02T15:29:13.924Z,76.45
2019-01-02T15:31:43.265Z,76.79
2019-01-02T15:34:12.863Z,77.40
2019-01-02T15:36:42.305Z,77.64
2019-01-02T15:39:11.846Z,77.78
2019-01-02T15:41:41.475Z,77.92
2019-01-02T15:44:10.861Z,78.06
2019-01-02T15:46:40.202Z,77.96
2019-01-02T15:49:09.740Z,77.90
2019-01-02T15:51:39.393Z,77.93
2019-01-02T15:54:08.750Z,77.66
2019-01-02T15:56:38.118Z,77.62
2019-01-02T15:59:07.481Z,77.32
2019-01-02T16:01:36.944Z,76.68
2019-01-02T16:04:06.375Z,76.31
2019-01-02T16:06:35.749Z,76.25
2019-01-02T16:09:07.691Z,76.12
2019-01-02T16:11:38.004Z,76.18
2019-01-02T16:14:07.462Z,76.21
2019-01-02T16:16:36.837Z,76.22
2019-01-02T16:19:06.184Z,76.40
2019-01-02T16:21:35.491Z,76.60
2019-01-02T16:24:04.902Z,76.87
2019-01-02T16:26:48.869Z,77.07
2019-01-02T16:29:25.868Z,77.13
2019-01-02T16:32:17.324Z,77.30
2019-01-02T16:35:06.790Z,77.25
2019-01-02T16:37:46.026Z,76.92
2019-01-02T16:40:24.990Z,76.98
2019-01-02T16:43:08.004Z,76.26
2019-01-02T16:46:10.372Z,75.10
2019-01-02T16:48:49.047Z,74.82
2019-01-02T16:51:58.022Z,74.55
2019-01-02T16:54:53.808Z,74.32
2019-01-02T16:57:50.613Z,73.46
2019-01-02T17:00:32.101Z,73.36
2019-01-02T17:03:05.133Z,73.15
2019-01-02T17:05:44.084Z,72.69
2019-01-02T17:08:35.826Z,72.44
2019-01-02T17:11:35.129Z,72.19
2019-01-02T17:14:18.346Z,71.86
2019-01-02T17:16:48.563Z,71.89
2019-01-02T17:19:18.090Z,71.45
2019-01-02T17:21:47.425Z,71.02
2019-01-02T17:24:16.765Z,71.28
2019-01-02T17:26:46.546Z,71.27
2019-01-02T17:29:18.714Z,71.18
2019-01-02T17:31:48.100Z,70.99
2019-01-02T17:34:17.465Z,71.21
2019-01-02T17:36:47.206Z,71.08
2019-01-02T17:39:16.543Z,71.18
2019-01-02T17:41:45.969Z,71.20
2019-01-02T17:44:15.263Z,71.47
2019-01-02T17:46:44.583Z,71.44
2019-01-02T17:49:13.919Z,71.63
2019-01-02T17:51:43.699Z,71.70
2019-01-02T17:54:13.096Z,71.79
2019-01-02T17:56:44.152Z,72.01
2019-01-02T17:59:13.596Z,71.98
2019-01-02T18:01:43.400Z,72.04
2019-01-02T18:04:12.762Z,71.87
2019-01-02T18:06:42.500Z,72.23
2019-01-02T18:09:12.229Z,72.10
2019-01-02T18:11:41.580Z,72.26
2019-01-02T18:14:10.894Z,72.42
2019-01-02T18:16:40.594Z,72.39
2019-01-02T18:19:09.944Z,72.77
2019-01-02T18:21:40.091Z,73.18
2019-01-02T18:24:09.505Z,72.95
2019-01-02T18:26:38.826Z,73.11
2019-01-02T18:29:08.164Z,73.13
2019-01-02T18:31:37.485Z,73.13
2019-01-02T18:34:06.899Z,73.34
2019-01-02T18:36:36.318Z,73.66
2019-01-02T18:39:08.696Z,73.94
2019-01-02T18:41:38.071Z,74.13
2019-01-02T18:44:07.499Z,74.28
2019-01-02T18:46:36.893Z,74.52
2019-01-02T18:49:06.281Z,74.86
2019-01-02T18:51:35.590Z,75.32
2019-01-02T18:54:05.003Z,75.33
2019-01-02T18:56:34.481Z,75.39
2019-01-02T18:59:04.301Z,75.50
2019-01-02T19:01:33.644Z,75.51
2019-01-02T19:04:03.530Z,75.79
2019-01-02T19:06:33.375Z,75.93
2019-01-02T19:09:02.970Z,75.98
2019-01-02T19:11:32.638Z,76.11
2019-01-02T19:14:02.016Z,76.12
2019-01-02T19:16:31.730Z,76.39
2019-01-02T19:19:01.058Z,76.55
2019-01-02T19:21:32.834Z,76.54
2019-01-02T20:01:18.856Z,77.09
2019-01-02T20:10:04.464Z,77.05
2019-01-02T20:18:18.616Z,77.07
2019-01-02T20:20:47.974Z,77.39
2019-01-02T20:23:17.322Z,77.71
2019-01-02T20:25:46.677Z,77.81
2019-01-02T20:28:16.080Z,77.96
2019-01-02T20:30:45.424Z,78.00
2019-01-02T20:33:14.816Z,78.02
2019-01-02T20:35:44.161Z,78.02
2019-01-02T20:38:13.480Z,78.10
2019-01-02T20:40:42.791Z,78.28
2019-01-02T20:43:12.156Z,78.27
2019-01-02T20:45:41.495Z,78.55
2019-01-02T20:48:10.837Z,78.49
2019-01-02T20:50:40.135Z,78.58
2019-01-02T20:53:09.491Z,78.68
2019-01-02T20:55:38.801Z,78.71
2019-01-02T20:58:08.096Z,78.71
2019-01-02T21:00:37.450Z,78.67
2019-01-02T21:03:06.768Z,78.82
2019-01-02T21:05:36.082Z,78.88
2019-01-02T21:08:05.423Z,78.82
2019-01-02T21:10:34.768Z,78.80
2019-01-02T21:13:04.506Z,78.91
2019-01-02T21:15:33.825Z,78.99
2019-01-02T21:18:03.120Z,79.01
2019-01-02T21:20:32.421Z,78.89
2019-01-02T21:23:01.745Z,79.05
2019-01-02T21:25:31.446Z,79.03
2019-01-02T21:28:00.736Z,79.19
2019-01-02T21:30:30.114Z,79.19
2019-01-02T21:32:59.431Z,79.07
2019-01-02T21:35:28.774Z,79.07
2019-01-02T21:37:58.119Z,79.15
2019-01-02T21:40:27.455Z,79.04
2019-01-02T21:42:56.765Z,79.12
2019-01-02T21:45:26.099Z,79.12
2019-01-02T21:47:55.451Z,79.15
2019-01-02T21:50:24.840Z,79.24
2019-01-02T21:52:54.215Z,79.50
2019-01-02T21:55:23.553Z,79.55
2019-01-02T21:57:52.868Z,79.43
2019-01-02T22:00:22.438Z,79.43
2019-01-02T22:02:51.768Z,79.50
2019-01-02T22:05:21.526Z,79.50
2019-01-02T22:07:50.820Z,79.58
2019-01-02T22:10:20.159Z,79.63
2019-01-02T22:12:49.511Z,79.61
2019-01-02T22:15:18.842Z,79.50
2019-01-02T22:17:48.158Z,79.79
2019-01-02T22:20:17.444Z,79.74
2019-01-02T22:22:46.782Z,79.93
2019-01-02T22:25:16.108Z,80.03
2019-01-02T22:27:45.439Z,79.86
2019-01-02T22:30:15.082Z,79.65
2019-01-02T22:32:44.342Z,79.99
2019-01-02T22:35:13.632Z,80.03
2019-01-02T22:37:42.975Z,79.99
2019-01-02T22:40:12.318Z,79.96
2019-01-02T22:42:41.648Z,79.94
2019-01-02T22:45:10.968Z,80.04
2019-01-02T22:47:40.319Z,80.10
2019-01-02T22:50:10.439Z,79.93
2019-01-02T22:52:39.837Z,79.77
2019-01-02T22:55:09.162Z,79.65
2019-01-02T22:57:38.533Z,79.66
2019-01-02T23:00:18.548Z,79.60
2019-01-02T23:02:55.889Z,79.70
2019-01-02T23:05:51.981Z,79.80
2019-01-02T23:08:43.304Z,79.85
2019-01-02T23:11:31.612Z,79.90
2019-01-02T23:14:22.928Z,80.05
2019-01-02T23:17:11.195Z,79.94
2019-01-02T23:19:58.162Z,80.00
2019-01-02T23:22:45.137Z,80.05
2019-01-02T23:25:31.984Z,80.05
2019-01-02T23:28:29.633Z,80.35
2019-01-02T23:31:23.048Z,80.43
2019-01-02T23:34:13.932Z,80.36
2019-01-02T23:37:07.015Z,80.10
2019-01-02T23:39:58.398Z,80.39
2019-01-02T23:42:51.410Z,80.19
2019-01-02T23:45:52.064Z,80.26
2019-01-02T23:48:40.313Z,80.21
2019-01-02T23:51:27.492Z,80.25
2019-01-02T23:54:15.756Z,80.26
2019-01-02T23:57:04.006Z,80.29
2019-01-02T23:59:51.390Z,80.20
